createdAt,value
2018-03-04T00:00:24.008Z,16.58
2018-03-04T00:02:53.080Z,15.32
2018-03-04T00:05:21.477Z,14.43
2018-03-04T00:07:49.752Z,15.83
2018-03-04T00:10:18.057Z,15.60
2018-03-04T00:12:47.131Z,14.63
2018-03-04T00:15:15.505Z,16.08
2018-03-04T00:17:43.777Z,13.83
2018-03-04T00:20:12.071Z,16.98
2018-03-04T00:22:41.243Z,14.57
2018-03-04T00:25:09.635Z,14.35
2018-03-04T00:27:37.920Z,15.30
2018-03-04T00:30:06.204Z,16.10
2018-03-04T00:32:34.494Z,14.43
2018-03-04T00:35:03.570Z,16.67
2018-03-04T00:37:31.887Z,15.95
2018-03-04T00:40:00.178Z,15.73
2018-03-04T00:42:28.479Z,16.85
2018-03-04T00:44:56.754Z,18.25
2018-03-04T00:47:25.064Z,16.20
2018-03-04T00:49:53.331Z,16.52
2018-03-04T00:52:21.623Z,15.48
2018-03-04T00:54:50.672Z,17.20
2018-03-04T00:57:19.014Z,14.13
2018-03-04T00:59:48.063Z,16.60
2018-03-04T01:02:16.344Z,15.83
2018-03-04T01:04:44.624Z,19.55
2018-03-04T01:07:14.448Z,16.73
2018-03-04T01:09:42.746Z,14.43
2018-03-04T01:12:11.796Z,15.77
2018-03-04T01:14:40.079Z,17.27
2018-03-04T01:17:08.369Z,15.10
2018-03-04T01:19:36.645Z,17.07
2018-03-04T01:22:04.964Z,17.15
2018-03-04T01:24:33.239Z,16.65
2018-03-04T01:27:01.532Z,17.23
2018-03-04T01:29:29.867Z,15.40
2018-03-04T01:31:58.149Z,17.00
2018-03-04T01:34:26.435Z,17.70
2018-03-04T01:36:55.494Z,16.02
2018-03-04T01:39:23.802Z,15.80
2018-03-04T01:41:52.863Z,18.50
2018-03-04T01:44:21.142Z,16.30
2018-03-04T01:46:49.541Z,17.53
2018-03-04T01:49:17.839Z,16.27
2018-03-04T01:51:53.570Z,16.00
2018-03-04T01:54:21.855Z,15.63
2018-03-04T01:56:50.176Z,14.70
2018-03-04T01:59:18.452Z,16.23
2018-03-04T02:01:46.781Z,17.40
2018-03-04T02:04:15.099Z,17.20
2018-03-04T02:06:44.138Z,15.27
2018-03-04T02:09:12.479Z,18.23
2018-03-04T02:11:41.508Z,15.50
2018-03-04T02:14:09.808Z,14.85
2018-03-04T02:16:38.085Z,16.03
2018-03-04T02:19:06.403Z,15.90
2018-03-04T02:21:34.683Z,14.00
2018-03-04T02:24:02.987Z,15.73
2018-03-04T02:26:31.283Z,16.77
2018-03-04T02:28:59.555Z,16.03
2018-03-04T02:31:27.848Z,18.93
2018-03-04T02:33:56.125Z,17.97
2018-03-04T02:36:24.449Z,16.58
2018-03-04T02:38:52.782Z,15.50
2018-03-04T02:41:21.033Z,17.00
2018-03-04T02:43:49.322Z,16.33
2018-03-04T02:46:17.617Z,18.08
2018-03-04T02:48:45.908Z,16.50
2018-03-04T02:51:14.973Z,16.67
2018-03-04T02:53:43.264Z,16.25
2018-03-04T02:56:13.052Z,15.60
2018-03-04T02:58:41.364Z,18.00
2018-03-04T03:01:10.396Z,15.43
2018-03-04T03:03:38.681Z,15.98
2018-03-04T03:06:07.023Z,15.30
2018-03-04T03:08:36.080Z,17.85
2018-03-04T03:11:04.432Z,19.70
2018-03-04T03:13:32.717Z,15.57
2018-03-04T03:16:01.015Z,14.38
2018-03-04T03:18:29.332Z,15.35
2018-03-04T03:20:58.413Z,16.42
2018-03-04T03:23:26.680Z,18.35
2018-03-04T03:25:54.979Z,16.27
2018-03-04T03:28:24.052Z,16.92
2018-03-04T03:30:52.339Z,16.33
2018-03-04T03:33:21.407Z,17.17
2018-03-04T03:35:49.704Z,16.65
2018-03-04T03:38:18.268Z,15.35
2018-03-04T03:40:46.547Z,15.60
2018-03-04T03:43:14.825Z,19.20
2018-03-04T03:45:43.253Z,18.05
2018-03-04T03:48:12.290Z,15.95
2018-03-04T03:50:40.699Z,18.70
2018-03-04T03:53:08.959Z,16.60
2018-03-04T03:55:37.272Z,16.33
2018-03-04T03:58:06.327Z,19.42
2018-03-04T04:00:34.640Z,12.82
2018-03-04T04:03:03.688Z,16.97
2018-03-04T04:05:31.972Z,15.63
2018-03-04T04:08:00.272Z,18.92
2018-03-04T04:10:28.552Z,16.27
2018-03-04T04:12:56.854Z,17.52
2018-03-04T04:15:25.930Z,16.33
2018-03-04T04:17:54.220Z,15.30
2018-03-04T04:20:23.268Z,17.15
2018-03-04T04:22:51.572Z,15.95
2018-03-04T04:25:19.876Z,16.95
2018-03-04T04:27:48.923Z,17.90
2018-03-04T04:30:17.254Z,17.00
2018-03-04T04:32:46.293Z,15.95
2018-03-04T04:35:14.601Z,17.08
2018-03-04T04:37:42.880Z,15.60
2018-03-04T04:40:11.951Z,18.85
2018-03-04T04:42:40.219Z,17.02
2018-03-04T04:45:08.527Z,16.50
2018-03-04T04:47:36.812Z,20.27
2018-03-04T04:50:05.902Z,13.90
2018-03-04T04:52:34.185Z,21.48
2018-03-04T04:55:02.467Z,18.17
2018-03-04T04:57:30.754Z,17.33
2018-03-04T04:59:59.824Z,17.23
2018-03-04T05:02:28.120Z,15.05
2018-03-04T05:04:57.176Z,17.40
2018-03-04T05:07:25.477Z,16.52
2018-03-04T05:09:53.759Z,17.10
2018-03-04T05:12:22.036Z,15.07
2018-03-04T05:14:50.337Z,15.93
2018-03-04T05:17:19.404Z,17.58
2018-03-04T05:19:47.709Z,14.13
2018-03-04T05:22:16.768Z,18.70
2018-03-04T05:24:45.111Z,16.85
2018-03-04T05:27:13.390Z,17.17
2018-03-04T05:29:41.699Z,14.55
2018-03-04T05:32:09.991Z,16.52
2018-03-04T05:34:38.298Z,13.03
2018-03-04T05:37:07.351Z,15.65
2018-03-04T05:39:35.632Z,17.73
2018-03-04T05:42:03.933Z,18.37
2018-03-04T05:44:32.206Z,16.62
2018-03-04T05:47:00.507Z,17.58
2018-03-04T05:49:28.788Z,16.35
2018-03-04T05:51:57.091Z,16.60
2018-03-04T05:54:25.379Z,17.40
2018-03-04T05:56:53.696Z,18.10
2018-03-04T05:59:21.987Z,15.07
2018-03-04T06:01:51.027Z,16.45
2018-03-04T06:04:19.334Z,18.23
2018-03-04T06:06:47.610Z,16.55
2018-03-04T06:09:16.727Z,16.97
2018-03-04T06:11:45.786Z,17.92
2018-03-04T06:14:14.185Z,15.52
2018-03-04T06:16:42.460Z,15.63
2018-03-04T06:19:10.749Z,16.95
2018-03-04T06:21:39.027Z,18.27
2018-03-04T06:24:08.099Z,16.05
2018-03-04T06:26:36.401Z,16.70
2018-03-04T06:29:05.448Z,16.80
2018-03-04T06:31:34.068Z,17.87
2018-03-04T06:34:03.573Z,19.52
2018-03-04T06:36:33.387Z,19.05
2018-03-04T06:39:02.914Z,18.73
2018-03-04T06:41:31.683Z,17.12
2018-03-04T06:44:01.192Z,17.90
2018-03-04T06:46:29.977Z,16.50
2018-03-04T06:48:59.736Z,18.85
2018-03-04T06:51:28.020Z,19.50
2018-03-04T06:53:56.317Z,17.55
2018-03-04T06:56:24.599Z,16.05
2018-03-04T06:58:52.908Z,18.27
2018-03-04T07:01:21.959Z,17.45
2018-03-04T07:03:50.269Z,19.92
2018-03-04T07:06:18.559Z,16.85
2018-03-04T07:08:46.866Z,18.52
2018-03-04T07:11:15.901Z,15.88
2018-03-04T07:13:44.228Z,18.05
2018-03-04T07:16:13.280Z,20.05
2018-03-04T07:18:41.575Z,20.48
2018-03-04T07:21:09.857Z,17.42
2018-03-04T07:23:38.176Z,14.57
2018-03-04T07:26:06.463Z,17.17
2018-03-04T07:28:34.730Z,16.40
2018-03-04T07:31:03.089Z,16.65
2018-03-04T07:33:32.125Z,18.27
2018-03-04T07:36:00.432Z,15.77
2018-03-04T07:38:28.712Z,15.35
2018-03-04T07:40:57.011Z,14.45
2018-03-04T07:43:25.320Z,18.02
2018-03-04T07:45:53.604Z,17.17
2018-03-04T07:48:21.921Z,17.75
2018-03-04T07:50:50.451Z,18.43
2018-03-04T07:53:19.606Z,17.90
2018-03-04T07:55:47.879Z,17.17
2018-03-04T07:58:16.204Z,17.87
2018-03-04T08:00:44.487Z,16.13
2018-03-04T08:03:12.792Z,16.90
2018-03-04T08:05:41.891Z,17.87
2018-03-04T08:08:11.195Z,17.30
2018-03-04T08:10:39.494Z,19.43
2018-03-04T08:13:07.760Z,16.17
2018-03-04T08:15:36.057Z,17.40
2018-03-04T08:18:04.336Z,17.27
2018-03-04T08:20:32.624Z,17.83
2018-03-04T08:23:01.680Z,16.90
2018-03-04T08:25:33.452Z,19.50
2018-03-04T08:28:13.612Z,17.70
2018-03-04T08:30:41.910Z,17.97
2018-03-04T08:33:10.191Z,20.67
2018-03-04T08:35:38.486Z,18.27
2018-03-04T08:38:07.562Z,17.17
2018-03-04T08:40:35.824Z,18.90
2018-03-04T08:43:04.119Z,19.67
2018-03-04T08:45:33.215Z,21.50
2018-03-04T08:48:01.472Z,18.07
2018-03-04T08:50:29.744Z,17.93
2018-03-04T08:52:58.027Z,16.00
2018-03-04T08:55:26.351Z,19.50
2018-03-04T08:57:54.626Z,21.70
2018-03-04T09:00:22.927Z,21.00
2018-03-04T09:02:51.196Z,19.53
2018-03-04T09:05:19.508Z,21.40
2018-03-04T09:07:47.782Z,18.07
2018-03-04T09:10:16.036Z,18.47
2018-03-04T09:12:44.439Z,21.13
2018-03-04T09:15:12.711Z,18.97
2018-03-04T09:17:41.013Z,19.37
2018-03-04T09:20:10.060Z,20.20
2018-03-04T09:22:38.383Z,21.50
2018-03-04T09:25:06.756Z,20.00
2018-03-04T09:27:35.037Z,18.53
2018-03-04T09:30:04.113Z,17.77
2018-03-04T09:32:32.373Z,19.77
2018-03-04T09:35:00.671Z,19.80
2018-03-04T09:37:28.928Z,20.97
2018-03-04T09:39:57.207Z,23.37
2018-03-04T09:42:25.475Z,21.57
2018-03-04T09:44:53.888Z,21.30
2018-03-04T09:47:22.467Z,22.50
2018-03-04T09:49:50.737Z,22.87
2018-03-04T09:52:19.123Z,19.73
2018-03-04T09:54:47.389Z,23.80
2018-03-04T09:57:15.679Z,21.77
2018-03-04T09:59:43.964Z,18.60
2018-03-04T10:02:13.041Z,21.30
2018-03-04T10:04:41.331Z,22.50
2018-03-04T10:07:10.388Z,21.77
2018-03-04T10:09:38.727Z,21.30
2018-03-04T10:12:07.112Z,21.83
2018-03-04T10:14:36.152Z,23.27
2018-03-04T10:17:04.454Z,23.90
2018-03-04T10:19:32.718Z,21.47
2018-03-04T10:22:01.032Z,24.30
2018-03-04T10:24:30.060Z,23.97
2018-03-04T10:26:58.327Z,21.53
2018-03-04T10:29:26.615Z,22.20
2018-03-04T10:31:54.904Z,24.00
2018-03-04T10:34:23.315Z,23.77
2018-03-04T10:36:51.592Z,23.00
2018-03-04T10:39:19.884Z,24.80
2018-03-04T10:41:48.192Z,22.40
2018-03-04T10:44:16.486Z,20.80
2018-03-04T10:46:44.791Z,23.50
2018-03-04T10:49:13.087Z,24.77
2018-03-04T10:51:42.948Z,24.00
2018-03-04T10:54:11.244Z,23.30
2018-03-04T10:56:39.557Z,22.50
2018-03-04T10:59:08.611Z,24.97
2018-03-04T11:01:44.608Z,25.40
2018-03-04T11:04:12.889Z,24.67
2018-03-04T11:06:41.159Z,23.27
2018-03-04T11:09:09.453Z,24.87
2018-03-04T11:11:37.824Z,23.03
2018-03-04T11:14:06.134Z,25.60
2018-03-04T11:16:34.421Z,22.20
2018-03-04T11:19:02.719Z,26.43
2018-03-04T11:21:31.000Z,22.17
2018-03-04T11:23:59.398Z,24.63
2018-03-04T11:26:27.651Z,25.53
2018-03-04T11:28:55.956Z,23.70
2018-03-04T11:31:24.226Z,23.83
2018-03-04T11:33:52.492Z,22.27
2018-03-04T11:36:20.778Z,25.47
2018-03-04T11:38:49.040Z,25.50
2018-03-04T11:41:17.328Z,24.23
2018-03-04T11:43:45.594Z,24.60
2018-03-04T11:46:13.857Z,26.00
2018-03-04T11:48:42.143Z,24.17
2018-03-04T11:51:10.407Z,24.20
2018-03-04T11:53:38.777Z,25.27
2018-03-04T11:56:07.086Z,25.20
2018-03-04T11:58:35.380Z,25.80
2018-03-04T12:01:03.702Z,25.60
2018-03-04T12:03:31.946Z,26.03
2018-03-04T12:06:00.235Z,24.90
2018-03-04T12:08:28.515Z,26.57
2018-03-04T12:10:56.882Z,23.40
2018-03-04T12:13:25.127Z,25.20
2018-03-04T12:15:53.444Z,26.30
2018-03-04T12:18:21.821Z,25.70
2018-03-04T12:20:50.111Z,27.80
2018-03-04T12:23:19.166Z,28.17
2018-03-04T12:25:47.843Z,27.17
2018-03-04T12:28:16.153Z,26.17
2018-03-04T12:30:44.660Z,25.97
2018-03-04T12:33:13.900Z,24.00
2018-03-04T12:35:42.452Z,27.53
2018-03-04T12:38:11.504Z,25.47
2018-03-04T12:40:39.800Z,27.47
2018-03-04T12:43:08.108Z,27.10
2018-03-04T12:45:37.135Z,26.47
2018-03-04T12:48:05.399Z,26.40
2018-03-04T12:50:33.687Z,27.37
2018-03-04T12:53:01.947Z,27.80
2018-03-04T12:55:30.232Z,25.30
2018-03-04T12:57:58.505Z,25.60
2018-03-04T13:00:26.825Z,25.40
2018-03-04T13:02:55.097Z,26.23
2018-03-04T13:05:23.378Z,28.33
2018-03-04T13:07:51.751Z,25.23
2018-03-04T13:10:20.140Z,27.77
2018-03-04T13:12:48.432Z,25.43
2018-03-04T13:15:18.210Z,26.17
2018-03-04T13:17:47.397Z,26.73
2018-03-04T13:20:15.687Z,27.40
2018-03-04T13:22:43.952Z,26.57
2018-03-04T13:25:12.272Z,25.97
2018-03-04T13:27:42.090Z,27.30
2018-03-04T13:30:11.115Z,25.73
2018-03-04T13:32:40.176Z,27.30
2018-03-04T13:35:09.948Z,28.63
2018-03-04T13:37:38.223Z,27.30
2018-03-04T13:40:06.501Z,27.80
2018-03-04T13:42:34.780Z,27.37
2018-03-04T13:45:03.057Z,27.00
2018-03-04T13:47:31.336Z,24.80
2018-03-04T13:49:59.601Z,26.10
2018-03-04T13:52:28.121Z,27.87
2018-03-04T13:54:56.400Z,26.13
2018-03-04T13:57:24.662Z,27.30
2018-03-04T13:59:52.952Z,28.00
2018-03-04T14:02:21.224Z,27.97
2018-03-04T14:04:49.604Z,27.10
2018-03-04T14:07:17.885Z,26.70
2018-03-04T14:09:46.168Z,26.00
2018-03-04T14:12:14.464Z,28.63
2018-03-04T14:14:43.497Z,26.80
2018-03-04T14:17:11.783Z,25.90
2018-03-04T14:19:40.084Z,27.53
2018-03-04T14:22:08.361Z,28.10
2018-03-04T14:24:36.629Z,29.77
2018-03-04T14:27:04.924Z,29.63
2018-03-04T14:29:33.213Z,29.07
2018-03-04T14:32:01.478Z,29.77
2018-03-04T14:34:29.763Z,29.10
2018-03-04T14:36:58.181Z,29.73
2018-03-04T14:39:27.231Z,30.27
2018-03-04T14:41:55.506Z,30.30
2018-03-04T14:44:23.805Z,30.00
2018-03-04T14:46:52.074Z,30.70
2018-03-04T14:49:20.340Z,29.83
2018-03-04T14:51:50.559Z,29.17
2018-03-04T14:54:18.830Z,28.60
2018-03-04T14:56:47.121Z,28.80
2018-03-04T14:59:15.551Z,30.00
2018-03-04T15:01:44.609Z,31.50
2018-03-04T15:04:12.871Z,32.47
2018-03-04T15:06:41.184Z,30.57
2018-03-04T15:09:09.466Z,29.40
2018-03-04T15:11:38.491Z,32.27
2018-03-04T15:14:06.795Z,29.60
2018-03-04T15:16:35.073Z,29.50
2018-03-04T15:19:03.352Z,29.77
2018-03-04T15:21:32.646Z,31.00
2018-03-04T15:24:00.962Z,30.60
2018-03-04T15:26:30.024Z,30.10
2018-03-04T15:28:58.357Z,29.87
2018-03-04T15:31:26.706Z,29.10
2018-03-04T15:33:55.780Z,29.80
2018-03-04T15:36:24.872Z,28.90
2018-03-04T15:38:53.160Z,31.10
2018-03-04T15:41:21.428Z,28.87
2018-03-04T15:43:49.727Z,29.67
2018-03-04T15:46:18.060Z,29.47
2018-03-04T15:48:46.363Z,27.57
2018-03-04T15:51:14.652Z,30.93
2018-03-04T15:53:42.978Z,30.27
2018-03-04T15:56:11.281Z,27.67
2018-03-04T15:58:39.583Z,27.47
2018-03-04T16:01:07.928Z,30.00
2018-03-04T16:03:37.054Z,30.27
2018-03-04T16:06:05.321Z,29.57
2018-03-04T16:08:33.633Z,27.03
2018-03-04T16:11:02.661Z,27.07
2018-03-04T16:13:30.919Z,26.93
2018-03-04T16:16:00.118Z,27.10
2018-03-04T16:18:29.143Z,28.90
2018-03-04T16:20:57.415Z,29.30
2018-03-04T16:23:25.700Z,25.77
2018-03-04T16:25:54.014Z,27.80
2018-03-04T16:28:23.040Z,28.10
2018-03-04T16:30:51.307Z,28.20
2018-03-04T16:33:20.376Z,27.20
2018-03-04T16:35:49.475Z,28.20
2018-03-04T16:38:17.756Z,28.03
2018-03-04T16:40:46.015Z,26.37
2018-03-04T16:43:14.308Z,27.63
2018-03-04T16:45:42.581Z,24.70
2018-03-04T16:48:10.920Z,25.87
2018-03-04T16:50:39.176Z,25.73
2018-03-04T16:53:07.516Z,24.37
2018-03-04T16:55:35.791Z,26.20
2018-03-04T16:58:04.168Z,23.77
2018-03-04T17:00:33.952Z,23.27
2018-03-04T17:03:02.215Z,25.50
2018-03-04T17:05:30.508Z,24.60
2018-03-04T17:07:58.779Z,23.87
2018-03-04T17:10:27.078Z,24.30
2018-03-04T17:12:55.358Z,25.03
2018-03-04T17:15:23.740Z,21.50
2018-03-04T17:17:52.053Z,22.47
2018-03-04T17:20:21.091Z,23.67
2018-03-04T17:22:49.379Z,35.77
2018-03-04T17:25:17.649Z,27.80
2018-03-04T17:27:45.923Z,38.10
2018-03-04T17:30:14.195Z,24.10
2018-03-04T17:32:42.487Z,24.30
2018-03-04T17:35:10.825Z,24.43
2018-03-04T17:37:39.075Z,25.47
2018-03-04T17:40:07.343Z,68.07
2018-03-04T17:42:35.716Z,28.03
2018-03-04T17:45:03.999Z,28.30
2018-03-04T17:47:32.263Z,24.80
2018-03-04T17:50:00.543Z,27.10
2018-03-04T17:52:28.842Z,23.13
2018-03-04T17:54:57.108Z,24.20
2018-03-04T17:57:25.395Z,19.50
2018-03-04T17:59:54.467Z,24.63
2018-03-04T18:02:22.767Z,22.50
2018-03-04T18:04:51.057Z,22.67
2018-03-04T18:07:20.127Z,23.33
2018-03-04T18:09:48.498Z,21.97
2018-03-04T18:12:16.764Z,23.10
2018-03-04T18:14:45.084Z,24.93
2018-03-04T18:17:13.332Z,23.50
2018-03-04T18:19:41.632Z,22.93
2018-03-04T18:22:10.703Z,23.10
2018-03-04T18:24:39.076Z,22.97
2018-03-04T18:27:07.464Z,23.53
2018-03-04T18:29:35.771Z,23.83
2018-03-04T18:32:04.836Z,24.37
2018-03-04T18:34:33.164Z,25.23
2018-03-04T18:37:01.405Z,25.17
2018-03-04T18:39:29.668Z,23.60
2018-03-04T18:41:57.972Z,24.87
2018-03-04T18:44:27.681Z,24.93
2018-03-04T18:46:56.748Z,26.53
2018-03-04T18:49:25.129Z,25.97
2018-03-04T18:51:53.426Z,26.40
2018-03-04T18:54:22.481Z,25.93
2018-03-04T18:56:50.747Z,25.70
2018-03-04T18:59:19.068Z,25.57
2018-03-04T19:01:47.435Z,28.67
2018-03-04T19:04:15.689Z,27.53
2018-03-04T19:06:44.091Z,26.27
2018-03-04T19:09:13.151Z,26.73
2018-03-04T19:11:41.436Z,28.67
2018-03-04T19:14:09.700Z,27.93
2018-03-04T19:16:38.024Z,26.60
2018-03-04T19:19:06.282Z,28.30
2018-03-04T19:21:34.544Z,26.30
2018-03-04T19:24:02.820Z,28.93
2018-03-04T19:26:31.086Z,23.40
2018-03-04T19:28:59.371Z,26.60
2018-03-04T19:31:27.638Z,29.87
2018-03-04T19:33:55.919Z,26.80
2018-03-04T19:36:24.296Z,27.30
2018-03-04T19:38:52.653Z,25.57
2018-03-04T19:41:21.700Z,24.30
2018-03-04T19:43:49.962Z,28.27
2018-03-04T19:46:18.286Z,25.87
2018-03-04T19:48:46.564Z,26.27
2018-03-04T19:51:14.843Z,24.30
2018-03-04T19:53:43.883Z,24.83
2018-03-04T19:56:12.147Z,25.00
2018-03-04T19:58:40.431Z,26.40
2018-03-04T20:01:08.703Z,26.67
2018-03-04T20:03:36.988Z,27.70
2018-03-04T20:06:05.299Z,26.37
2018-03-04T20:08:33.604Z,25.00
2018-03-04T20:11:03.394Z,26.70
2018-03-04T20:13:31.663Z,26.50
2018-03-04T20:16:00.150Z,26.93
2018-03-04T20:18:28.404Z,26.40
2018-03-04T20:20:56.868Z,26.43
2018-03-04T20:23:25.134Z,27.60
2018-03-04T20:25:53.439Z,27.03
2018-03-04T20:28:21.707Z,28.70
2018-03-04T20:30:50.025Z,26.00
2018-03-04T20:33:18.321Z,25.60
2018-03-04T20:35:47.356Z,28.10
2018-03-04T20:38:15.640Z,23.90
2018-03-04T20:40:43.916Z,26.23
2018-03-04T20:43:12.217Z,23.07
2018-03-04T20:45:40.481Z,25.10
2018-03-04T20:48:08.771Z,23.70
2018-03-04T20:50:37.066Z,26.53
2018-03-04T20:53:05.338Z,25.00
2018-03-04T20:55:33.693Z,25.07
2018-03-04T20:58:01.916Z,22.80
2018-03-04T21:00:30.971Z,23.83
2018-03-04T21:02:59.240Z,24.07
2018-03-04T21:05:27.510Z,24.57
2018-03-04T21:07:55.819Z,25.20
2018-03-04T21:10:24.166Z,25.60
2018-03-04T21:12:52.435Z,26.00
2018-03-04T21:15:20.711Z,27.57
2018-03-04T21:17:49.004Z,23.60
2018-03-04T21:20:17.277Z,24.13
2018-03-04T21:22:45.552Z,26.20
2018-03-04T21:25:13.836Z,27.10
2018-03-04T21:27:42.127Z,24.10
2018-03-04T21:30:11.407Z,25.63
2018-03-04T21:32:39.684Z,23.60
2018-03-04T21:35:08.002Z,25.53
2018-03-04T21:37:36.276Z,26.03
2018-03-04T21:40:04.552Z,26.77
2018-03-04T21:42:32.846Z,25.60
2018-03-04T21:45:01.872Z,24.57
2018-03-04T21:47:30.227Z,25.37
2018-03-04T21:49:59.261Z,25.77
2018-03-04T21:52:27.527Z,25.70
2018-03-04T21:54:55.803Z,26.00
2018-03-04T21:57:24.076Z,27.00
2018-03-04T21:59:52.358Z,23.00
2018-03-04T22:02:20.619Z,25.90
2018-03-04T22:04:48.948Z,27.27
2018-03-04T22:07:17.628Z,23.83
2018-03-04T22:09:45.891Z,25.70
2018-03-04T22:12:14.187Z,27.93
2018-03-04T22:14:42.488Z,24.00
2018-03-04T22:17:11.555Z,25.97
2018-03-04T22:19:39.851Z,23.60
2018-03-04T22:22:08.144Z,25.90
2018-03-04T22:24:37.208Z,27.63
2018-03-04T22:27:05.473Z,26.97
2018-03-04T22:29:33.747Z,26.43
2018-03-04T22:32:02.046Z,25.00
2018-03-04T22:34:30.331Z,25.67
2018-03-04T22:36:59.212Z,25.27
2018-03-04T22:39:27.530Z,24.87
2018-03-04T22:41:55.800Z,25.27
2018-03-04T22:44:24.881Z,24.33
2018-03-04T22:46:53.942Z,24.93
2018-03-04T22:49:22.243Z,25.60
2018-03-04T22:51:50.520Z,24.30
2018-03-04T22:54:19.286Z,29.07
2018-03-04T22:56:47.575Z,28.40
2018-03-04T22:59:15.842Z,24.60
2018-03-04T23:01:44.133Z,24.97
2018-03-04T23:04:12.417Z,25.10
2018-03-04T23:06:40.773Z,25.60
2018-03-04T23:09:09.156Z,25.03
2018-03-04T23:11:37.418Z,26.07
2018-03-04T23:14:05.772Z,25.47
2018-03-04T23:16:34.043Z,26.20
2018-03-04T23:19:02.377Z,26.87
2018-03-04T23:21:30.638Z,23.33
2018-03-04T23:23:58.924Z,25.30
2018-03-04T23:26:27.208Z,26.10
2018-03-04T23:28:55.484Z,26.67
2018-03-04T23:31:23.785Z,25.90
2018-03-04T23:33:52.835Z,23.83
2018-03-04T23:36:21.341Z,23.43
2018-03-04T23:38:49.595Z,25.20
2018-03-04T23:41:17.860Z,23.03
2018-03-04T23:43:46.238Z,24.57
2018-03-04T23:46:14.500Z,23.00
2018-03-04T23:48:42.788Z,23.90
2018-03-04T23:51:11.048Z,25.57
2018-03-04T23:53:39.331Z,26.17
2018-03-04T23:56:07.596Z,23.80
2018-03-04T23:58:36.652Z,24.57
